createdAt,value
2022-10-12T00:01:20.517Z,4.72
2022-10-12T00:03:44.487Z,4.70
2022-10-12T00:06:10.882Z,4.64
2022-10-12T00:08:35.879Z,4.64
2022-10-12T00:10:59.406Z,4.55
2022-10-12T00:13:24.548Z,4.47
2022-10-12T00:15:48.058Z,4.47
2022-10-12T00:18:11.795Z,4.49
2022-10-12T00:20:35.615Z,4.51
2022-10-12T00:22:59.199Z,4.49
2022-10-12T00:25:22.724Z,4.46
2022-10-12T00:27:46.455Z,4.47
2022-10-12T00:30:13.820Z,4.50
2022-10-12T00:32:37.474Z,4.44
2022-10-12T00:35:00.975Z,4.43
2022-10-12T00:37:24.603Z,4.36
2022-10-12T00:39:49.559Z,4.33
2022-10-12T00:42:13.530Z,4.36
2022-10-12T00:44:41.593Z,4.35
2022-10-12T00:47:21.112Z,4.29
2022-10-12T00:49:47.788Z,4.30
2022-10-12T00:52:14.483Z,4.22
2022-10-12T00:54:43.585Z,4.26
2022-10-12T00:57:08.740Z,4.28
2022-10-12T00:59:38.217Z,4.30
2022-10-12T01:02:02.272Z,4.24
2022-10-12T01:04:27.812Z,4.26
2022-10-12T01:06:51.966Z,4.20
2022-10-12T01:09:16.146Z,4.23
2022-10-12T01:11:39.703Z,4.18
2022-10-12T01:14:03.811Z,4.18
2022-10-12T01:16:36.438Z,4.15
2022-10-12T01:19:10.062Z,4.12
2022-10-12T01:21:39.226Z,4.10
2022-10-12T01:24:25.940Z,4.03
2022-10-12T01:27:36.396Z,4.03
2022-10-12T01:30:13.351Z,4.01
2022-10-12T01:32:53.950Z,4.04
2022-10-12T01:35:23.982Z,3.99
2022-10-12T01:37:54.652Z,3.96
2022-10-12T01:40:30.719Z,3.95
2022-10-12T01:42:57.059Z,3.90
2022-10-12T01:45:22.058Z,3.99
2022-10-12T01:47:49.479Z,3.93
2022-10-12T01:50:15.650Z,3.90
2022-10-12T01:52:44.597Z,3.90
2022-10-12T01:55:19.141Z,3.88
2022-10-12T01:57:56.256Z,4.02
2022-10-12T02:00:21.892Z,4.00
2022-10-12T02:02:57.059Z,3.89
2022-10-12T02:05:30.483Z,3.83
2022-10-12T02:08:00.451Z,3.83
2022-10-12T02:10:29.458Z,3.78
2022-10-12T02:12:56.226Z,3.75
2022-10-12T02:15:24.058Z,3.70
2022-10-12T02:17:50.998Z,3.72
2022-10-12T02:20:18.722Z,3.73
2022-10-12T02:22:47.043Z,3.72
2022-10-12T02:25:13.980Z,3.75
2022-10-12T02:27:43.430Z,3.71
2022-10-12T02:30:09.340Z,3.69
2022-10-12T02:32:40.114Z,3.72
2022-10-12T02:35:09.067Z,3.67
2022-10-12T02:37:39.963Z,3.68
2022-10-12T02:40:11.727Z,3.61
2022-10-12T02:43:08.880Z,3.62
2022-10-12T02:45:30.898Z,3.58
2022-10-12T02:47:57.447Z,3.57
2022-10-12T02:50:22.943Z,3.52
2022-10-12T02:52:48.247Z,3.52
2022-10-12T02:55:13.166Z,3.51
2022-10-12T02:57:36.888Z,3.49
2022-10-12T03:00:00.746Z,3.54
2022-10-12T03:02:24.323Z,3.61
2022-10-12T03:04:49.304Z,3.52
2022-10-12T03:07:12.807Z,3.43
2022-10-12T03:09:36.487Z,3.44
2022-10-12T03:12:00.079Z,3.41
2022-10-12T03:14:23.911Z,3.41
2022-10-12T03:16:48.200Z,3.39
2022-10-12T03:19:11.927Z,3.42
2022-10-12T03:21:36.980Z,3.39
2022-10-12T03:24:00.638Z,3.39
2022-10-12T03:26:24.188Z,3.32
2022-10-12T03:28:47.903Z,3.36
2022-10-12T03:31:11.507Z,3.31
2022-10-12T03:33:35.124Z,3.30
2022-10-12T03:35:59.790Z,3.23
2022-10-12T03:38:24.789Z,3.17
2022-10-12T03:40:48.835Z,3.23
2022-10-12T03:43:13.319Z,3.24
2022-10-12T03:45:36.935Z,3.19
2022-10-12T03:48:04.637Z,3.20
2022-10-12T03:50:29.003Z,3.15
2022-10-12T03:52:52.597Z,3.17
2022-10-12T03:55:17.834Z,3.20
2022-10-12T03:57:41.431Z,3.17
2022-10-12T04:00:06.802Z,3.14
2022-10-12T04:02:34.879Z,3.11
2022-10-12T04:04:58.432Z,3.19
2022-10-12T04:07:21.997Z,3.15
2022-10-12T04:09:45.518Z,3.14
2022-10-12T04:12:10.507Z,3.10
2022-10-12T04:14:34.051Z,3.15
2022-10-12T04:16:57.676Z,3.15
2022-10-12T04:19:21.637Z,3.10
2022-10-12T04:21:45.219Z,3.07
2022-10-12T04:24:09.378Z,3.09
2022-10-12T04:26:32.982Z,3.06
2022-10-12T04:28:58.062Z,3.03
2022-10-12T04:31:21.782Z,3.11
2022-10-12T04:33:45.308Z,3.07
2022-10-12T04:36:09.470Z,3.05
2022-10-12T04:38:32.990Z,3.05
2022-10-12T04:40:57.755Z,3.04
2022-10-12T04:43:21.410Z,3.02
2022-10-12T04:45:46.524Z,2.99
2022-10-12T04:48:10.086Z,2.98
2022-10-12T04:50:33.675Z,2.97
2022-10-12T04:52:57.246Z,2.98
2022-10-12T04:55:20.846Z,2.95
2022-10-12T04:57:44.383Z,2.94
2022-10-12T05:00:09.655Z,2.95
2022-10-12T05:02:35.000Z,2.98
2022-10-12T05:04:58.635Z,2.97
2022-10-12T05:07:22.179Z,2.90
2022-10-12T05:09:45.759Z,2.95
2022-10-12T05:12:09.464Z,2.93
2022-10-12T05:14:35.823Z,2.85
2022-10-12T05:16:59.691Z,2.87
2022-10-12T05:19:24.665Z,2.92
2022-10-12T05:21:48.219Z,2.77
2022-10-12T05:24:12.820Z,2.81
2022-10-12T05:26:36.334Z,2.81
2022-10-12T05:29:00.058Z,2.81
2022-10-12T05:31:23.690Z,2.73
2022-10-12T05:33:47.260Z,2.76
2022-10-12T05:36:12.442Z,2.66
2022-10-12T05:38:36.119Z,2.71
2022-10-12T05:41:00.864Z,2.67
2022-10-12T05:43:25.180Z,2.51
2022-10-12T05:45:49.116Z,2.66
2022-10-12T05:48:12.723Z,2.73
2022-10-12T05:50:36.310Z,2.67
2022-10-12T05:53:01.316Z,2.77
2022-10-12T05:55:24.876Z,2.72
2022-10-12T05:57:52.013Z,2.75
2022-10-12T06:00:16.149Z,2.75
2022-10-12T06:02:40.102Z,2.82
2022-10-12T06:05:03.846Z,2.88
2022-10-12T06:07:27.460Z,2.83
2022-10-12T06:09:52.395Z,2.92
2022-10-12T06:12:16.410Z,2.84
2022-10-12T06:14:39.975Z,2.95
2022-10-12T06:17:03.572Z,3.07
2022-10-12T06:19:27.219Z,3.13
2022-10-12T06:21:50.880Z,3.22
2022-10-12T06:24:14.407Z,3.16
2022-10-12T06:26:39.392Z,3.33
2022-10-12T06:29:02.989Z,3.61
2022-10-12T06:31:27.046Z,3.84
2022-10-12T06:33:51.091Z,4.05
2022-10-12T06:36:14.736Z,4.04
2022-10-12T06:38:38.264Z,4.09
2022-10-12T06:41:01.824Z,4.15
2022-10-12T06:43:26.837Z,4.20
2022-10-12T06:45:50.507Z,4.39
2022-10-12T06:48:18.336Z,4.35
2022-10-12T06:50:42.632Z,4.30
2022-10-12T06:53:06.224Z,4.35
2022-10-12T06:55:29.931Z,4.54
2022-10-12T06:57:53.459Z,4.69
2022-10-12T07:00:19.281Z,4.73
2022-10-12T07:02:42.799Z,4.63
2022-10-12T07:05:07.947Z,4.71
2022-10-12T07:07:32.757Z,4.80
2022-10-12T07:09:56.431Z,4.93
2022-10-12T07:12:20.246Z,4.98
2022-10-12T07:14:43.879Z,5.13
2022-10-12T07:17:08.780Z,5.29
2022-10-12T07:19:32.358Z,5.36
2022-10-12T07:21:55.949Z,5.51
2022-10-12T07:24:19.553Z,5.58
2022-10-12T07:26:43.156Z,5.77
2022-10-12T07:29:06.787Z,5.92
2022-10-12T07:31:30.504Z,6.06
2022-10-12T07:33:56.331Z,6.21
2022-10-12T07:36:21.874Z,6.35
2022-10-12T07:38:45.870Z,6.55
2022-10-12T07:41:10.030Z,6.71
2022-10-12T07:43:33.795Z,6.87
2022-10-12T07:45:57.539Z,7.01
2022-10-12T07:48:21.356Z,7.14
2022-10-12T07:50:46.258Z,7.33
2022-10-12T07:53:09.899Z,7.54
2022-10-12T07:55:33.451Z,7.63
2022-10-12T07:57:57.044Z,7.83
2022-10-12T08:00:22.094Z,7.95
2022-10-12T08:02:45.723Z,8.12
2022-10-12T08:05:10.441Z,8.43
2022-10-12T08:07:35.474Z,8.75
2022-10-12T08:09:59.007Z,9.15
2022-10-12T08:12:22.723Z,9.54
2022-10-12T08:14:46.239Z,9.88
2022-10-12T08:17:09.895Z,10.18
2022-10-12T08:19:35.420Z,10.48
2022-10-12T08:21:59.151Z,10.78
2022-10-12T08:24:24.113Z,11.05
2022-10-12T08:26:48.920Z,11.15
2022-10-12T08:29:12.777Z,11.31
2022-10-12T08:31:36.843Z,11.42
2022-10-12T08:34:00.860Z,11.58
2022-10-12T08:36:24.515Z,11.70
2022-10-12T08:38:53.950Z,11.73
2022-10-12T08:41:40.875Z,11.63
2022-10-12T08:44:27.623Z,11.74
2022-10-12T08:46:57.000Z,11.74
2022-10-12T08:49:23.880Z,12.01
2022-10-12T08:51:51.448Z,11.94
2022-10-12T08:54:17.158Z,12.26
2022-10-12T08:56:42.692Z,12.44
2022-10-12T08:59:06.710Z,12.67
2022-10-12T09:01:37.402Z,12.72
2022-10-12T09:04:18.751Z,12.93
2022-10-12T09:06:48.985Z,13.03
2022-10-12T09:09:33.635Z,13.15
2022-10-12T09:12:16.696Z,13.39
2022-10-12T09:14:42.666Z,13.58
2022-10-12T09:17:28.803Z,13.42
2022-10-12T09:20:02.688Z,13.57
2022-10-12T09:22:26.471Z,13.98
2022-10-12T09:24:52.985Z,14.34
2022-10-12T09:27:20.964Z,14.20
2022-10-12T09:29:48.064Z,14.67
2022-10-12T09:32:42.136Z,15.01
2022-10-12T09:35:08.160Z,15.39
2022-10-12T09:37:34.712Z,15.35
2022-10-12T09:39:59.374Z,15.94
2022-10-12T09:42:24.361Z,16.16
2022-10-12T09:44:50.463Z,16.18
2022-10-12T09:47:29.884Z,16.22
2022-10-12T09:49:58.458Z,16.38
2022-10-12T09:52:26.563Z,17.13
2022-10-12T09:54:55.508Z,17.29
2022-10-12T09:57:25.221Z,17.30
2022-10-12T09:59:49.267Z,17.87
2022-10-12T10:02:17.533Z,17.64
2022-10-12T10:04:42.794Z,17.92
2022-10-12T10:07:28.298Z,17.90
2022-10-12T10:10:18.145Z,18.45
2022-10-12T10:12:50.731Z,17.83
2022-10-12T10:15:23.898Z,18.53
2022-10-12T10:17:53.839Z,18.53
2022-10-12T10:20:33.840Z,18.60
2022-10-12T10:22:58.425Z,18.05
2022-10-12T10:25:25.028Z,18.61
2022-10-12T10:28:24.982Z,18.37
2022-10-12T10:31:00.635Z,17.90
2022-10-12T10:33:24.242Z,18.13
2022-10-12T10:36:02.258Z,18.59
2022-10-12T10:38:26.215Z,18.88
2022-10-12T10:40:53.181Z,18.66
2022-10-12T10:43:29.464Z,18.43
2022-10-12T10:45:57.369Z,18.20
2022-10-12T10:48:24.056Z,18.88
2022-10-12T10:50:56.540Z,18.79
2022-10-12T10:53:23.203Z,18.56
2022-10-12T10:55:51.038Z,18.28
2022-10-12T10:58:27.666Z,18.71
2022-10-12T11:00:53.097Z,18.71
2022-10-12T11:03:25.165Z,18.56
2022-10-12T11:05:56.311Z,18.15
2022-10-12T11:08:25.154Z,17.81
2022-10-12T11:10:54.917Z,17.96
2022-10-12T11:13:22.499Z,18.10
2022-10-12T11:15:50.719Z,18.15
2022-10-12T11:18:21.774Z,18.30
2022-10-12T11:20:54.027Z,18.12
2022-10-12T11:23:30.079Z,17.90
2022-10-12T11:26:13.542Z,17.88
2022-10-12T11:28:39.202Z,18.09
2022-10-12T11:31:03.716Z,18.03
2022-10-12T11:33:35.196Z,17.68
2022-10-12T11:36:00.295Z,17.14
2022-10-12T11:38:32.187Z,17.65
2022-10-12T11:41:19.015Z,17.60
2022-10-12T11:43:51.719Z,17.83
2022-10-12T11:46:20.289Z,17.83
2022-10-12T11:48:51.969Z,17.67
2022-10-12T11:51:15.558Z,18.14
2022-10-12T11:53:54.421Z,18.01
2022-10-12T11:56:25.556Z,17.58
2022-10-12T11:59:00.997Z,17.34
2022-10-12T12:01:45.114Z,16.62
2022-10-12T12:04:42.825Z,17.27
2022-10-12T12:07:41.368Z,17.57
2022-10-12T12:11:04.277Z,17.46
2022-10-12T12:13:28.581Z,17.69
2022-10-12T12:16:23.917Z,17.32
2022-10-12T12:19:41.845Z,17.24
2022-10-12T12:22:50.451Z,17.03
2022-10-12T12:25:21.535Z,17.03
2022-10-12T12:27:49.805Z,16.71
2022-10-12T12:30:42.048Z,16.90
2022-10-12T12:33:27.070Z,17.14
2022-10-12T12:35:56.059Z,17.50
2022-10-12T12:38:27.866Z,17.09
2022-10-12T12:41:11.545Z,16.91
2022-10-12T12:43:59.170Z,17.48
2022-10-12T12:46:23.574Z,17.51
2022-10-12T12:49:04.865Z,16.98
2022-10-12T12:51:44.475Z,17.53
2022-10-12T12:54:20.680Z,17.22
2022-10-12T12:57:16.384Z,17.54
2022-10-12T13:00:15.134Z,16.97
2022-10-12T13:03:22.703Z,17.01
2022-10-12T13:06:48.412Z,17.04
2022-10-12T13:09:53.140Z,17.48
2022-10-12T13:12:47.992Z,17.23
2022-10-12T13:15:32.043Z,16.51
2022-10-12T13:18:47.745Z,16.43
2022-10-12T13:21:20.576Z,16.27
2022-10-12T13:23:49.333Z,16.69
2022-10-12T13:26:20.774Z,16.67
2022-10-12T13:28:44.772Z,16.78
2022-10-12T13:31:13.757Z,16.58
2022-10-12T13:33:45.729Z,16.48
2022-10-12T13:36:18.134Z,16.22
2022-10-12T13:38:41.767Z,16.10
2022-10-12T13:41:10.019Z,15.99
2022-10-12T13:43:44.887Z,16.30
2022-10-12T13:46:09.242Z,15.92
2022-10-12T13:48:58.603Z,16.09
2022-10-12T13:51:25.566Z,15.99
2022-10-12T13:53:49.196Z,16.07
2022-10-12T13:56:18.331Z,16.12
2022-10-12T13:58:43.463Z,15.62
2022-10-12T14:01:07.349Z,15.74
2022-10-12T14:03:39.679Z,16.00
2022-10-12T14:06:04.497Z,16.04
2022-10-12T14:08:29.387Z,15.91
2022-10-12T14:10:53.595Z,15.93
2022-10-12T14:13:26.688Z,15.96
2022-10-12T14:15:51.852Z,15.81
2022-10-12T14:18:39.787Z,15.76
2022-10-12T14:21:14.260Z,15.29
2022-10-12T14:23:43.300Z,15.61
2022-10-12T14:26:15.735Z,15.61
2022-10-12T14:28:39.450Z,15.67
2022-10-12T14:31:04.842Z,15.77
2022-10-12T14:33:29.347Z,15.47
2022-10-12T14:35:54.268Z,15.52
2022-10-12T14:38:39.758Z,15.69
2022-10-12T14:41:35.477Z,15.74
2022-10-12T14:44:11.891Z,15.62
2022-10-12T14:46:37.801Z,15.60
2022-10-12T14:49:01.645Z,15.57
2022-10-12T14:51:25.560Z,15.32
2022-10-12T14:54:00.044Z,15.21
2022-10-12T14:56:23.695Z,15.12
2022-10-12T14:58:47.253Z,15.29
2022-10-12T15:01:10.962Z,15.12
2022-10-12T15:03:36.105Z,15.23
2022-10-12T15:05:59.995Z,15.15
2022-10-12T15:08:23.517Z,15.25
2022-10-12T15:10:51.209Z,15.28
2022-10-12T15:13:15.292Z,15.13
2022-10-12T15:15:43.847Z,15.20
2022-10-12T15:18:08.377Z,15.01
2022-10-12T15:20:34.107Z,14.86
2022-10-12T15:22:57.687Z,14.82
2022-10-12T15:25:26.022Z,14.81
2022-10-12T15:27:49.535Z,14.54
2022-10-12T15:30:14.817Z,14.67
2022-10-12T15:32:38.522Z,14.54
2022-10-12T15:35:02.469Z,14.58
2022-10-12T15:37:30.399Z,14.46
2022-10-12T15:39:54.012Z,14.31
2022-10-12T15:42:17.494Z,14.24
2022-10-12T15:44:42.237Z,14.20
2022-10-12T15:47:05.773Z,14.14
2022-10-12T15:49:29.392Z,13.98
2022-10-12T15:51:55.144Z,13.90
2022-10-12T15:54:20.488Z,13.81
2022-10-12T15:56:44.075Z,13.58
2022-10-12T15:59:07.955Z,13.60
2022-10-12T16:01:31.925Z,13.53
2022-10-12T16:03:56.209Z,13.35
2022-10-12T16:06:19.986Z,13.29
2022-10-12T16:08:43.795Z,13.15
2022-10-12T16:11:12.799Z,13.07
2022-10-12T16:13:42.915Z,12.99
2022-10-12T16:16:09.505Z,12.74
2022-10-12T16:18:33.274Z,12.68
2022-10-12T16:20:56.928Z,12.59
2022-10-12T16:23:23.578Z,12.47
2022-10-12T16:25:47.384Z,12.36
2022-10-12T16:28:13.155Z,12.30
2022-10-12T16:30:36.855Z,12.22
2022-10-12T16:33:00.515Z,12.07
2022-10-12T16:35:24.347Z,12.02
2022-10-12T16:37:48.078Z,11.86
2022-10-12T16:40:13.443Z,11.79
2022-10-12T16:42:37.089Z,11.67
2022-10-12T16:45:02.425Z,11.56
2022-10-12T16:47:26.127Z,11.52
2022-10-12T16:49:52.071Z,11.40
2022-10-12T16:52:16.458Z,11.31
2022-10-12T16:54:40.740Z,11.21
2022-10-12T16:57:04.554Z,11.15
2022-10-12T16:59:28.708Z,11.05
2022-10-12T17:01:53.878Z,10.90
2022-10-12T17:04:17.447Z,10.88
2022-10-12T17:06:41.989Z,10.76
2022-10-12T17:09:06.602Z,10.69
2022-10-12T17:11:30.361Z,10.62
2022-10-12T17:13:55.858Z,10.54
2022-10-12T17:16:37.203Z,10.47
2022-10-12T17:19:02.211Z,10.39
2022-10-12T17:21:26.127Z,10.31
2022-10-12T17:23:49.719Z,10.23
2022-10-12T17:26:13.468Z,10.18
2022-10-12T17:28:38.607Z,10.04
2022-10-12T17:31:10.714Z,10.00
2022-10-12T17:33:35.540Z,9.94
2022-10-12T17:36:00.895Z,9.82
2022-10-12T17:38:24.671Z,9.78
2022-10-12T17:40:51.157Z,9.72
2022-10-12T17:43:14.731Z,9.64
2022-10-12T17:45:41.336Z,9.58
2022-10-12T17:48:05.256Z,9.50
2022-10-12T17:50:28.823Z,9.45
2022-10-12T17:52:53.793Z,9.38
2022-10-12T17:55:36.519Z,9.33
2022-10-12T17:58:01.912Z,9.25
2022-10-12T18:00:25.560Z,9.21
2022-10-12T18:02:49.363Z,9.16
2022-10-12T18:05:12.939Z,9.08
2022-10-12T18:07:37.502Z,9.06
2022-10-12T18:10:02.422Z,9.03
2022-10-12T18:12:26.106Z,8.96
2022-10-12T18:14:49.631Z,8.86
2022-10-12T18:17:13.288Z,8.84
2022-10-12T18:19:36.945Z,8.77
2022-10-12T18:22:00.562Z,8.69
2022-10-12T18:24:24.086Z,8.67
2022-10-12T18:26:49.280Z,8.57
2022-10-12T18:29:16.763Z,8.53
2022-10-12T18:31:40.555Z,8.48
2022-10-12T18:34:04.579Z,8.44
2022-10-12T18:36:28.758Z,8.38
2022-10-12T18:38:52.823Z,8.37
2022-10-12T18:41:22.110Z,8.35
2022-10-12T18:43:47.182Z,8.30
2022-10-12T18:46:13.072Z,8.21
2022-10-12T18:48:36.752Z,8.17
2022-10-12T18:51:06.141Z,8.13
2022-10-12T18:53:29.660Z,8.04
2022-10-12T18:55:53.214Z,7.95
2022-10-12T18:58:16.814Z,7.96
2022-10-12T19:00:42.896Z,7.96
2022-10-12T19:03:06.556Z,7.88
2022-10-12T19:05:30.723Z,7.81
2022-10-12T19:07:54.367Z,7.80
2022-10-12T19:10:18.137Z,7.76
2022-10-12T19:12:45.622Z,7.72
2022-10-12T19:15:10.693Z,7.68
2022-10-12T19:17:35.729Z,7.63
2022-10-12T19:19:59.691Z,7.59
2022-10-12T19:22:23.416Z,7.57
2022-10-12T19:24:48.179Z,7.49
2022-10-12T19:27:11.796Z,7.45
2022-10-12T19:29:35.402Z,7.42
2022-10-12T19:31:59.601Z,7.39
2022-10-12T19:34:24.692Z,7.35
2022-10-12T19:36:49.276Z,7.36
2022-10-12T19:39:16.755Z,7.28
2022-10-12T19:41:40.561Z,7.23
2022-10-12T19:44:04.181Z,7.24
2022-10-12T19:46:28.292Z,7.23
2022-10-12T19:48:54.057Z,7.19
2022-10-12T19:51:21.255Z,7.11
2022-10-12T19:53:45.139Z,7.07
2022-10-12T19:56:11.370Z,7.04
2022-10-12T19:58:35.255Z,7.01
2022-10-12T20:01:02.514Z,6.98
2022-10-12T20:03:26.191Z,6.92
2022-10-12T20:05:49.738Z,6.91
2022-10-12T20:08:14.864Z,6.87
2022-10-12T20:10:38.860Z,6.81
2022-10-12T20:13:02.414Z,6.78
2022-10-12T20:15:25.976Z,6.76
2022-10-12T20:17:49.511Z,6.72
2022-10-12T20:20:13.589Z,6.68
2022-10-12T20:22:37.233Z,6.65
2022-10-12T20:25:06.915Z,6.63
2022-10-12T20:27:33.804Z,6.57
2022-10-12T20:29:57.320Z,6.54
2022-10-12T20:32:21.119Z,6.48
2022-10-12T20:34:44.786Z,6.46
2022-10-12T20:37:08.391Z,6.45
2022-10-12T20:39:33.648Z,6.43
2022-10-12T20:41:58.616Z,6.39
2022-10-12T20:44:22.815Z,6.42
2022-10-12T20:46:51.620Z,6.34
2022-10-12T20:49:15.156Z,6.33
2022-10-12T20:51:42.835Z,6.27
2022-10-12T20:54:08.905Z,6.26
2022-10-12T20:56:36.003Z,6.22
2022-10-12T20:59:02.009Z,6.19
2022-10-12T21:01:27.063Z,6.16
2022-10-12T21:03:50.611Z,6.17
2022-10-12T21:06:17.328Z,6.13
2022-10-12T21:08:41.787Z,6.11
2022-10-12T21:11:06.641Z,6.07
2022-10-12T21:13:31.794Z,6.05
2022-10-12T21:15:56.839Z,6.02
2022-10-12T21:18:20.696Z,6.00
2022-10-12T21:20:44.292Z,5.99
2022-10-12T21:23:07.829Z,5.98
2022-10-12T21:25:31.415Z,5.93
2022-10-12T21:27:54.936Z,5.92
2022-10-12T21:30:18.739Z,5.86
2022-10-12T21:32:43.643Z,5.81
2022-10-12T21:35:08.104Z,5.79
2022-10-12T21:37:31.640Z,5.78
2022-10-12T21:39:55.220Z,5.77
2022-10-12T21:42:19.017Z,5.77
2022-10-12T21:44:42.890Z,5.75
2022-10-12T21:47:06.554Z,5.71
2022-10-12T21:49:31.549Z,5.70
2022-10-12T21:51:55.090Z,5.66
2022-10-12T21:54:18.644Z,5.71
2022-10-12T21:56:42.529Z,5.63
2022-10-12T21:59:07.490Z,5.54
2022-10-12T22:01:34.658Z,5.57
2022-10-12T22:04:00.887Z,5.57
2022-10-12T22:06:28.043Z,5.54
2022-10-12T22:08:55.983Z,5.50
2022-10-12T22:11:19.949Z,5.52
2022-10-12T22:13:43.566Z,5.46
2022-10-12T22:16:10.023Z,5.41
2022-10-12T22:18:33.910Z,5.45
2022-10-12T22:20:57.797Z,5.43
2022-10-12T22:23:23.307Z,5.43
2022-10-12T22:25:47.372Z,5.38
2022-10-12T22:28:11.059Z,5.38
2022-10-12T22:30:40.754Z,5.33
2022-10-12T22:33:04.335Z,5.29
2022-10-12T22:35:27.892Z,5.29
2022-10-12T22:37:51.501Z,5.24
2022-10-12T22:40:16.636Z,5.24
2022-10-12T22:42:40.219Z,5.23
2022-10-12T22:45:03.798Z,5.22
2022-10-12T22:47:27.369Z,5.20
2022-10-12T22:49:53.108Z,5.18
2022-10-12T22:52:17.079Z,5.23
2022-10-12T22:54:40.787Z,5.13
2022-10-12T22:57:05.881Z,5.11
2022-10-12T22:59:31.407Z,5.11
2022-10-12T23:01:54.999Z,5.09
2022-10-12T23:04:19.024Z,5.02
2022-10-12T23:06:42.591Z,5.05
2022-10-12T23:09:06.523Z,5.02
2022-10-12T23:11:31.484Z,5.01
2022-10-12T23:13:57.914Z,4.99
2022-10-12T23:16:24.939Z,4.98
2022-10-12T23:18:48.877Z,4.97
2022-10-12T23:21:15.587Z,4.97
2022-10-12T23:23:40.385Z,4.89
2022-10-12T23:26:07.007Z,4.88
2022-10-12T23:28:30.680Z,4.87
2022-10-12T23:30:55.884Z,4.89
2022-10-12T23:33:19.468Z,4.86
2022-10-12T23:35:43.063Z,4.80
2022-10-12T23:38:06.643Z,4.81
2022-10-12T23:40:30.231Z,4.79
2022-10-12T23:42:54.325Z,4.72
2022-10-12T23:45:18.079Z,4.72
2022-10-12T23:47:45.234Z,4.70
2022-10-12T23:50:09.572Z,4.72
2022-10-12T23:52:33.105Z,4.68
2022-10-12T23:54:56.671Z,4.69
2022-10-12T23:57:45.037Z,4.67
